This is the latest recevied weather packets stored in our database for station/object KE5QKR. If no packets are shown the sender has not sent any weather packets the latest 10 day(s).
| Time | Temp. | Humidity | Pressure | Rain* | Wind** | Luminosity | Snow |
|---|---|---|---|---|---|---|---|
| 1777675752 | 12.78° C | 99% | 1010.6 hPa | 0 mm | - | 10 W/m² | - |
| 1777675450 | 12.78° C | 99% | 1010.8 hPa | 0 mm | - | 11 W/m² | - |
| 1777675146 | 12.78° C | 99% | 1010.9 hPa | 0 mm | - | 24 W/m² | - |
| 1777674842 | 13.33° C | 99% | 1011.1 hPa | 0 mm | - | 19 W/m² | - |
| 1777674538 | 12.78° C | 99% | 1011.2 hPa | 0 mm | - | 28 W/m² | - |
| 1777674236 | 12.78° C | 99% | 1011 hPa | 0 mm | - | 23 W/m² | - |
| 1777673932 | 12.78° C | 99% | 1010.7 hPa | 0 mm | - | 23 W/m² | - |
| 1777673629 | 12.78° C | 99% | 1011.1 hPa | 0 mm | - | 19 W/m² | - |
| 1777673328 | 12.78° C | 99% | 1011.6 hPa | 0 mm | - | 10 W/m² | - |
| 1777673024 | 12.78° C | 99% | 1011.3 hPa | 0 mm | - | 7 W/m² | - |
| 1777672721 | 12.78° C | 99% | 1010.5 hPa | 0 mm | - | 27 W/m² | - |
| 1777672417 | 12.78° C | 99% | 1010.5 hPa | 0 mm | - | 39 W/m² | - |
| 1777672113 | 12.78° C | 99% | 1010.3 hPa | 0 mm | - | 40 W/m² | - |
| 1777671808 | 12.78° C | 99% | 1010.3 hPa | 0 mm | - | 38 W/m² | - |
| 1777671504 | 12.78° C | 99% | 1011.2 hPa | 0 mm | - | 24 W/m² | - |
| 1777671201 | 12.78° C | 99% | 1011.3 hPa | 0 mm | - | 11 W/m² | - |
| 1777670897 | 12.78° C | 99% | 1010.4 hPa | 0 mm | - | 20 W/m² | - |
| 1777670594 | 12.78° C | 99% | 1010.2 hPa | 0 mm | - | 14 W/m² | - |
| 1777670291 | 12.78° C | 99% | 1009.9 hPa | 0 mm | - | 28 W/m² | - |
| 1777669988 | 13.33° C | 99% | 1010.3 hPa | 0 mm | - | 19 W/m² | - |
| 1777669685 | 13.33° C | 99% | 1010.2 hPa | 0 mm | - | 16 W/m² | - |
| 1777669382 | 13.33° C | 99% | 1010.1 hPa | 0 mm | - | 31 W/m² | - |
| 1777669078 | 13.89° C | 99% | 1010.4 hPa | 0 mm | - | 19 W/m² | - |
| 1777668775 | 13.89° C | 99% | 1010.4 hPa | 0 mm | - | 18 W/m² | - |
| 1777668471 | 14.44° C | 99% | 1010.7 hPa | 0 mm | - | 17 W/m² | - |
* Rain latest hour (hover to see other rain measurements)
** Current wind speed in m/s (hover to see current wind gust speed)